Time;durP1;ratioP1;P1;durP2;ratioP2;P2;SDS_P1;SDS_P2;PMS_P1;PMS_P2;Temp;Humidity;BMP_temperature;BMP_pressure;BME280_temperature;BME280_humidity;BME280_pressure;Samples;Min_cycle;Max_cycle;Signal;HPM_P1;HPM_P2
2023/07/18 00:01:25;;;;;;;1999.90;999.90;;;15.40;99.90;;;;;;5099725;27;20409;-69
2023/07/18 00:03:50;;;;;;;1999.90;999.90;;;15.30;99.90;;;;;;5115432;28;20074;-69
2023/07/18 00:06:18;;;;;;;1999.90;999.90;;;15.40;99.90;;;;;;5115433;27;20094;-69
2023/07/18 00:08:44;;;;;;;1999.90;999.90;;;15.40;99.90;;;;;;5118282;27;20097;-69
2023/07/18 00:11:10;;;;;;;1999.90;999.90;;;15.40;99.90;;;;;;5114604;27;20101;-70
2023/07/18 00:13:35;;;;;;;1999.90;999.90;;;15.40;99.90;;;;;;5114021;28;20119;-69
2023/07/18 00:16:01;;;;;;;1999.90;999.90;;;15.40;99.90;;;;;;5115362;28;20560;-69
2023/07/18 00:18:26;;;;;;;1999.90;999.90;;;15.40;99.90;;;;;;5115320;28;20041;-70
2023/07/18 00:20:52;;;;;;;1999.90;999.90;;;15.30;99.90;;;;;;5098600;28;20380;-69
2023/07/18 00:23:18;;;;;;;1999.90;999.90;;;15.20;99.90;;;;;;5094946;28;20040;-69
2023/07/18 00:25:44;;;;;;;1999.90;999.90;;;15.20;99.90;;;;;;5094932;28;20421;-69
2023/07/18 00:28:09;;;;;;;1999.90;999.90;;;15.30;99.90;;;;;;5108240;27;20036;-69
2023/07/18 00:30:35;;;;;;;1999.90;999.90;;;15.30;99.90;;;;;;5114921;28;20528;-69
2023/07/18 00:33:01;;;;;;;1999.90;999.90;;;15.30;99.90;;;;;;5104876;28;20453;-69
2023/07/18 00:35:27;;;;;;;1999.90;999.90;;;15.20;99.90;;;;;;5094822;28;20044;-69
2023/07/18 00:37:57;;;;;;;1999.90;999.90;;;15.20;99.90;;;;;;5094244;28;20037;-69
2023/07/18 00:40:23;;;;;;;1999.90;999.90;;;15.20;99.90;;;;;;5094829;28;20525;-69
2023/07/18 00:42:49;;;;;;;1999.90;999.90;;;15.20;99.90;;;;;;5094329;28;20113;-69
2023/07/18 00:45:14;;;;;;;1999.90;999.90;;;15.20;99.90;;;;;;5093200;28;20086;-69
2023/07/18 00:47:45;;;;;;;1999.90;999.90;;;15.20;99.90;;;;;;5094516;28;20113;-69
2023/07/18 00:50:15;;;;;;;1999.90;999.90;;;15.10;99.90;;;;;;5094868;28;20056;-69
2023/07/18 00:52:44;;;;;;;1999.90;999.90;;;15.20;99.90;;;;;;5094484;28;20473;-69
2023/07/18 00:55:11;;;;;;;1999.90;999.90;;;15.10;99.90;;;;;;5094408;28;20130;-69
2023/07/18 00:57:39;;;;;;;1999.90;999.90;;;15.10;99.90;;;;;;5094517;28;20044;-69
2023/07/18 01:00:11;;;;;;;1999.90;999.90;;;15.10;99.90;;;;;;5094711;28;20067;-69
2023/07/18 01:02:38;;;;;;;1999.90;999.90;;;15.10;99.90;;;;;;5094248;28;20520;-69
2023/07/18 01:05:04;;;;;;;1999.90;999.90;;;15.10;99.90;;;;;;5094428;28;20416;-69
2023/07/18 01:07:30;;;;;;;1999.90;999.90;;;15.00;99.90;;;;;;5094182;28;20028;-69
2023/07/18 01:10:25;;;;;;;1999.90;999.90;;;15.00;99.90;;;;;;5094277;28;20749;-69
2023/07/18 01:12:55;;;;;;;1999.90;999.90;;;14.90;99.90;;;;;;5107978;27;20040;-69
2023/07/18 01:15:22;;;;;;;1999.90;999.90;;;15.00;99.90;;;;;;5114375;27;20044;-69
2023/07/18 01:17:49;;;;;;;1999.90;999.90;;;15.00;99.90;;;;;;5114411;28;20036;-69
2023/07/18 01:20:18;;;;;;;1999.90;999.90;;;15.00;99.90;;;;;;5114572;27;20105;-69
2023/07/18 01:22:45;;;;;;;1999.90;999.90;;;15.00;99.90;;;;;;5125716;27;20568;-70
2023/07/18 01:25:14;;;;;;;1999.90;999.90;;;14.90;99.90;;;;;;5138841;27;20035;-69
2023/07/18 01:27:40;;;;;;;1999.90;999.90;;;14.90;99.90;;;;;;5138484;27;20028;-69
2023/07/18 01:30:06;;;;;;;1999.90;999.90;;;14.90;99.90;;;;;;5132099;27;20040;-69
2023/07/18 01:32:33;;;;;;;1999.90;999.90;;;14.80;99.90;;;;;;5125056;27;20116;-69
2023/07/18 01:35:05;;;;;;;1999.90;999.90;;;14.70;99.90;;;;;;5138737;27;20574;-70
2023/07/18 01:37:37;;;;;;;1999.90;999.90;;;14.70;99.90;;;;;;5138331;27;20073;-69
2023/07/18 01:40:08;;;;;;;1999.90;999.90;;;14.60;99.90;;;;;;5138779;27;20063;-69
2023/07/18 01:42:34;;;;;;;1999.90;999.90;;;14.60;99.90;;;;;;5138409;27;20073;-69
2023/07/18 01:45:02;;;;;;;1999.90;999.90;;;14.50;99.90;;;;;;5138608;27;20031;-69
2023/07/18 01:47:28;;;;;;;1999.90;999.90;;;14.40;99.90;;;;;;5138422;27;20028;-69
2023/07/18 01:49:53;;;;;;;1999.90;999.90;;;14.40;99.90;;;;;;5138643;27;20036;-69
2023/07/18 01:52:19;;;;;;;1999.90;999.90;;;14.50;99.90;;;;;;5138236;27;20082;-70
2023/07/18 01:54:44;;;;;;;1999.90;999.90;;;14.40;99.90;;;;;;5138116;27;20054;-70
2023/07/18 01:57:10;;;;;;;1999.90;999.90;;;14.40;99.90;;;;;;5137778;27;20034;-70
2023/07/18 01:59:35;;;;;;;1999.90;999.90;;;14.40;99.90;;;;;;5138311;27;20035;-69
2023/07/18 02:02:06;;;;;;;1999.90;999.90;;;14.30;99.90;;;;;;5137985;27;20038;-69
2023/07/18 02:04:32;;;;;;;1999.90;999.90;;;14.30;99.90;;;;;;5138429;27;20478;-69
2023/07/18 02:06:57;;;;;;;1999.90;999.90;;;14.40;99.90;;;;;;5138156;27;20035;-69
2023/07/18 02:09:23;;;;;;;1999.90;999.90;;;14.40;99.90;;;;;;5138232;27;20028;-69
2023/07/18 02:11:49;;;;;;;1999.90;999.90;;;14.40;99.90;;;;;;5137559;27;20032;-69
2023/07/18 02:14:19;;;;;;;1999.90;999.90;;;14.50;99.90;;;;;;5138001;27;20027;-69
2023/07/18 02:16:44;;;;;;;1999.90;999.90;;;14.50;99.90;;;;;;5137822;27;20501;-69
2023/07/18 02:19:10;;;;;;;1999.90;999.90;;;14.50;99.90;;;;;;5137742;27;20044;-69
2023/07/18 02:21:35;;;;;;;1999.90;999.90;;;14.50;99.90;;;;;;5137480;27;20161;-69
2023/07/18 02:24:03;;;;;;;1999.90;999.90;;;14.50;99.90;;;;;;5119247;27;20119;-69
2023/07/18 02:26:29;;;;;;;1999.90;999.90;;;14.50;99.90;;;;;;5116915;27;20116;-69
2023/07/18 02:28:55;;;;;;;1999.90;999.90;;;14.40;99.90;;;;;;5116857;28;20032;-69
2023/07/18 02:31:21;;;;;;;1999.90;999.90;;;14.40;99.90;;;;;;5132845;27;20027;-69
2023/07/18 02:33:47;;;;;;;1999.90;999.90;;;14.40;99.90;;;;;;5137307;27;20035;-69
2023/07/18 02:36:12;;;;;;;1999.90;999.90;;;14.40;99.90;;;;;;5137387;27;20040;-69
2023/07/18 02:38:38;;;;;;;1999.90;999.90;;;14.40;99.90;;;;;;5137039;27;20043;-70
2023/07/18 02:41:03;;;;;;;1999.90;999.90;;;14.40;99.90;;;;;;5129874;27;20036;-69
2023/07/18 02:43:29;;;;;;;1999.90;999.90;;;14.40;99.90;;;;;;5116921;28;20035;-69
2023/07/18 02:45:55;;;;;;;1999.90;999.90;;;14.40;99.90;;;;;;5116727;28;20036;-69
2023/07/18 02:48:20;;;;;;;1999.90;999.90;;;14.40;99.90;;;;;;5116862;27;20051;-70
2023/07/18 02:50:48;;;;;;;1999.90;999.90;;;14.30;99.90;;;;;;5116883;28;20024;-69
2023/07/18 02:53:13;;;;;;;1999.90;999.90;;;14.30;99.90;;;;;;5116765;27;20039;-69
2023/07/18 02:55:39;;;;;;;1999.90;999.90;;;14.30;99.90;;;;;;5116455;28;20044;-69
2023/07/18 02:58:05;;;;;;;1999.90;999.90;;;14.30;99.90;;;;;;5116499;28;20059;-69
2023/07/18 03:00:33;;;;;;;1999.90;999.90;;;14.30;99.90;;;;;;5115311;28;20117;-69
2023/07/18 03:02:59;;;;;;;1999.90;999.90;;;14.30;99.90;;;;;;5116308;27;20024;-69
2023/07/18 03:05:25;;;;;;;1999.90;999.90;;;14.20;99.90;;;;;;5116717;28;20044;-69
2023/07/18 03:07:54;;;;;;;1999.90;999.90;;;14.20;99.90;;;;;;5116277;27;20081;-69
2023/07/18 03:10:20;;;;;;;1999.90;999.90;;;14.10;99.90;;;;;;5116369;27;20028;-69
2023/07/18 03:12:46;;;;;;;1999.90;999.90;;;14.10;99.90;;;;;;5116303;27;20024;-69
2023/07/18 03:15:11;;;;;;;1999.90;999.90;;;14.10;99.90;;;;;;5116539;27;20461;-69
2023/07/18 03:17:37;;;;;;;1999.90;999.90;;;14.10;99.90;;;;;;5116130;28;20030;-70
2023/07/18 03:20:13;;;;;;;1999.90;999.90;;;14.10;99.90;;;;;;5116537;28;20036;-69
2023/07/18 03:22:39;;;;;;;1999.90;999.90;;;14.10;99.90;;;;;;5115955;27;20086;-69
2023/07/18 03:25:05;;;;;;;1999.90;999.90;;;14.10;99.90;;;;;;5116065;28;20085;-69
2023/07/18 03:27:31;;;;;;;1999.90;999.90;;;14.10;99.90;;;;;;5115998;27;20028;-69
2023/07/18 03:29:56;;;;;;;1999.90;999.90;;;14.00;99.90;;;;;;5116285;28;20059;-69
2023/07/18 03:32:22;;;;;;;1999.90;999.90;;;14.00;99.90;;;;;;5115708;27;20385;-69
2023/07/18 03:34:48;;;;;;;1999.90;999.90;;;14.00;99.90;;;;;;5114371;28;20498;-69
2023/07/18 03:37:13;;;;;;;1999.90;999.90;;;14.00;99.90;;;;;;5117304;27;20036;-69
2023/07/18 03:39:39;;;;;;;1999.90;999.90;;;14.00;99.90;;;;;;5116167;28;20089;-69
2023/07/18 03:42:04;;;;;;;1999.90;999.90;;;14.00;99.90;;;;;;5115688;28;20055;-69
2023/07/18 03:44:30;;;;;;;1999.90;999.90;;;14.00;99.90;;;;;;5116177;27;20036;-69
2023/07/18 03:46:55;;;;;;;1999.90;999.90;;;14.00;99.90;;;;;;5114864;28;20047;-69
2023/07/18 03:49:21;;;;;;;1999.90;999.90;;;14.20;99.90;;;;;;5107148;28;20039;-69
2023/07/18 03:51:47;;;;;;;1999.90;999.90;;;14.20;99.90;;;;;;5095135;28;20036;-69
2023/07/18 03:54:12;;;;;;;1999.90;999.90;;;14.10;99.90;;;;;;5095322;28;20533;-70
2023/07/18 03:56:38;;;;;;;1999.90;999.90;;;14.20;99.90;;;;;;5101667;27;20040;-69
2023/07/18 03:59:03;;;;;;;1999.90;999.90;;;14.20;99.90;;;;;;5115610;28;20088;-69
2023/07/18 04:01:29;;;;;;;1999.90;999.90;;;14.20;99.90;;;;;;5115297;27;20047;-69
2023/07/18 04:03:54;;;;;;;1999.90;999.90;;;14.30;99.90;;;;;;5116942;27;20066;-70
2023/07/18 04:06:20;;;;;;;1999.90;999.90;;;14.30;99.90;;;;;;5115476;28;20126;-69
2023/07/18 04:08:45;;;;;;;1999.90;999.90;;;14.40;99.90;;;;;;5115076;27;20127;-69
2023/07/18 04:11:11;;;;;;;1999.90;999.90;;;14.30;99.90;;;;;;5115458;27;20043;-69
2023/07/18 04:13:37;;;;;;;1999.90;999.90;;;14.30;99.90;;;;;;5115348;27;20451;-70
2023/07/18 04:16:05;;;;;;;1999.90;999.90;;;14.30;99.90;;;;;;5115364;27;20115;-69
2023/07/18 04:18:30;;;;;;;1999.90;999.90;;;14.30;99.90;;;;;;5113706;27;20028;-69
2023/07/18 04:21:01;;;;;;;1999.90;999.90;;;14.20;99.90;;;;;;5114913;27;20035;-69
2023/07/18 04:23:27;;;;;;;1999.90;999.90;;;14.20;99.90;;;;;;5115427;27;20083;-69
2023/07/18 04:26:01;;;;;;;1999.90;999.90;;;14.20;99.90;;;;;;5115495;27;20422;-69
2023/07/18 04:28:28;;;;;;;1999.90;999.90;;;14.20;99.90;;;;;;5115373;27;20494;-69
2023/07/18 04:30:54;;;;;;;1999.90;999.90;;;14.20;99.90;;;;;;5115208;27;20039;-69
2023/07/18 04:33:19;;;;;;;1999.90;999.90;;;14.20;99.90;;;;;;5115371;27;20476;-69
2023/07/18 04:35:45;;;;;;;1999.90;999.90;;;14.20;99.90;;;;;;5115079;27;20036;-70
2023/07/18 04:38:14;;;;;;;1999.90;999.90;;;14.20;99.90;;;;;;5114633;27;20085;-69
2023/07/18 04:40:41;;;;;;;1999.90;999.90;;;14.20;99.90;;;;;;5115116;27;20578;-69
2023/07/18 04:43:07;;;;;;;1999.90;999.90;;;14.20;99.90;;;;;;5114894;27;20028;-70
2023/07/18 04:45:33;;;;;;;1999.90;999.90;;;14.20;99.90;;;;;;5115070;27;20060;-69
2023/07/18 04:47:59;;;;;;;1999.90;999.90;;;14.20;99.90;;;;;;5114911;27;20115;-69
2023/07/18 04:50:24;;;;;;;1999.90;999.90;;;14.20;99.90;;;;;;5115091;27;20108;-69
2023/07/18 04:52:51;;;;;;;1999.90;999.90;;;14.20;99.90;;;;;;5114869;27;20043;-70
2023/07/18 04:55:18;;;;;;;1999.90;999.90;;;14.30;99.90;;;;;;5114906;27;20032;-70
2023/07/18 04:57:43;;;;;;;1999.90;999.90;;;14.30;99.90;;;;;;5116578;27;20091;-70
2023/07/18 05:00:10;;;;;;;1999.90;999.90;;;14.30;99.90;;;;;;5118876;27;20504;-70
2023/07/18 05:02:36;;;;;;;1999.90;999.90;;;14.30;99.90;;;;;;5118109;27;20052;-70
2023/07/18 05:05:02;;;;;;;1999.90;999.90;;;14.40;99.90;;;;;;5118379;27;20048;-70
2023/07/18 05:07:27;;;;;;;1999.90;999.90;;;14.40;99.90;;;;;;5117462;27;20505;-70
2023/07/18 05:09:53;;;;;;;1999.90;999.90;;;14.60;99.90;;;;;;5118184;28;20044;-70
2023/07/18 05:12:18;;;;;;;1999.90;999.90;;;14.70;99.90;;;;;;5117443;28;20032;-70
2023/07/18 05:14:44;;;;;;;1999.90;999.90;;;14.70;99.90;;;;;;5118306;28;20035;-71
2023/07/18 05:17:10;;;;;;;1999.90;999.90;;;14.90;99.90;;;;;;5117876;27;20489;-70
2023/07/18 05:19:35;;;;;;;1999.90;999.90;;;15.00;99.90;;;;;;5118302;27;20405;-70
2023/07/18 05:22:01;;;;;;;1999.90;999.90;;;15.10;99.90;;;;;;5117916;27;20035;-70
2023/07/18 05:24:26;;;;;;;1999.90;999.90;;;15.20;99.90;;;;;;5118306;27;20032;-70
2023/07/18 05:26:52;;;;;;;1999.90;999.90;;;15.30;99.90;;;;;;5118278;27;20043;-70
2023/07/18 05:29:18;;;;;;;1999.90;999.90;;;15.50;99.90;;;;;;5117434;27;20024;-70
2023/07/18 05:31:43;;;;;;;1999.90;999.90;;;15.50;99.90;;;;;;5117119;27;20090;-70
2023/07/18 05:34:09;;;;;;;1999.90;999.90;;;15.70;99.90;;;;;;5117724;27;20044;-69
2023/07/18 05:36:34;;;;;;;1999.90;999.90;;;15.90;99.90;;;;;;5117332;27;20040;-70
2023/07/18 05:39:00;;;;;;;1999.90;999.90;;;16.00;99.90;;;;;;5117704;27;20131;-69
2023/07/18 05:41:26;;;;;;;1999.90;999.90;;;16.10;99.90;;;;;;5117808;27;20051;-70
2023/07/18 05:43:51;;;;;;;1999.90;999.90;;;16.30;99.90;;;;;;5118172;27;20027;-70
2023/07/18 05:46:17;;;;;;;1999.90;999.90;;;16.40;99.90;;;;;;5117815;27;20090;-70
2023/07/18 05:48:43;;;;;;;1999.90;999.90;;;16.50;99.90;;;;;;5117936;27;20031;-70
2023/07/18 05:51:08;;;;;;;1999.90;999.90;;;16.70;99.90;;;;;;5117524;27;20036;-70
2023/07/18 05:53:34;;;;;;;1999.90;999.90;;;16.80;99.90;;;;;;5117880;27;20107;-70
2023/07/18 05:55:59;;;;;;;1999.90;999.90;;;17.00;99.90;;;;;;5117670;27;20040;-70
2023/07/18 05:58:25;;;;;;;1999.90;999.90;;;17.20;99.90;;;;;;5117428;27;20338;-70
2023/07/18 06:00:50;;;;;;;1999.90;999.90;;;17.20;99.90;;;;;;5117715;27;20036;-70
2023/07/18 06:03:17;;;;;;;1999.90;999.90;;;17.30;99.90;;;;;;5117476;27;20039;-69
2023/07/18 06:05:43;;;;;;;1999.90;999.90;;;17.50;99.90;;;;;;5116261;27;20032;-70
2023/07/18 06:08:10;;;;;;;1999.90;999.90;;;17.60;99.90;;;;;;5117339;27;20428;-70
2023/07/18 06:10:35;;;;;;;1999.90;999.90;;;17.80;99.90;;;;;;5117013;27;20044;-69
2023/07/18 06:13:01;;;;;;;1999.90;999.90;;;17.90;99.90;;;;;;5117115;27;20382;-70
2023/07/18 06:15:26;;;;;;;1999.90;999.90;;;17.90;99.90;;;;;;5117408;27;20510;-70
2023/07/18 06:17:52;;;;;;;1999.90;999.90;;;18.00;99.90;;;;;;5112412;27;20043;-69
2023/07/18 06:20:18;;;;;;;1999.90;999.90;;;18.00;99.90;;;;;;5095606;28;20047;-69
2023/07/18 06:22:44;;;;;;;1999.90;999.90;;;18.00;99.90;;;;;;5096126;28;20032;-69
2023/07/18 06:25:11;;;;;;;1999.90;999.90;;;18.00;99.90;;;;;;5096089;28;20033;-69
2023/07/18 06:27:37;;;;;;;1999.90;999.90;;;18.00;99.90;;;;;;5096209;28;20029;-69
2023/07/18 06:30:03;;;;;;;1999.90;999.90;;;18.10;99.90;;;;;;5096854;28;20071;-69
2023/07/18 06:32:29;;;;;;;1999.90;999.90;;;18.10;99.90;;;;;;5096146;28;20429;-73
2023/07/18 06:34:55;;;;;;;1999.90;999.90;;;18.20;99.90;;;;;;5094917;28;20041;-69
2023/07/18 06:37:20;;;;;;;1999.90;999.90;;;18.20;99.90;;;;;;5096157;28;20035;-69
2023/07/18 06:39:50;;;;;;;1999.90;999.90;;;18.40;99.90;;;;;;5096949;28;20036;-69
2023/07/18 06:42:16;;;;;;;1999.90;999.90;;;18.50;99.90;;;;;;5096255;28;20418;-69
2023/07/18 06:44:41;;;;;;;1999.90;999.90;;;18.60;99.90;;;;;;5096538;28;20028;-69
2023/07/18 06:47:07;;;;;;;1999.90;999.90;;;18.70;99.20;;;;;;5095400;28;20028;-69
2023/07/18 06:49:32;;;;;;;1999.90;999.90;;;18.80;99.00;;;;;;5096547;28;20063;-69
2023/07/18 06:51:58;;;;;;;1999.90;999.90;;;19.00;99.00;;;;;;5096048;28;20028;-69
2023/07/18 06:54:24;;;;;;;1999.90;999.90;;;19.10;97.20;;;;;;5096453;28;20039;-68
2023/07/18 06:56:49;;;;;;;1999.90;999.90;;;19.30;96.40;;;;;;5096423;28;20039;-69
2023/07/18 06:59:15;;;;;;;1999.90;999.90;;;19.50;96.80;;;;;;5096030;28;20048;-69
2023/07/18 07:01:42;;;;;;;1999.90;999.90;;;19.60;96.30;;;;;;5095670;28;20037;-69
2023/07/18 07:04:08;;;;;;;1999.90;999.90;;;19.80;96.30;;;;;;5096277;28;20028;-69
2023/07/18 07:06:41;;;;;;;1999.90;999.90;;;20.00;95.60;;;;;;5096227;28;20037;-69
2023/07/18 07:09:07;;;;;;;1999.90;999.90;;;20.20;95.40;;;;;;5096037;28;20033;-69
2023/07/18 07:11:32;;;;;;;1999.90;999.90;;;20.30;95.00;;;;;;5094263;28;20028;-69
2023/07/18 07:13:58;;;;;;;1999.90;999.90;;;20.60;94.50;;;;;;5095821;28;20025;-69
2023/07/18 07:16:23;;;;;;;1999.90;999.90;;;20.70;94.30;;;;;;5095879;28;20059;-69
2023/07/18 07:18:50;;;;;;;1999.90;999.90;;;20.90;92.50;;;;;;5095771;28;20123;-69
2023/07/18 07:21:16;;;;;;;1999.90;999.90;;;21.10;92.50;;;;;;5095610;28;20032;-69
2023/07/18 07:23:41;;;;;;;1999.90;999.90;;;21.30;91.80;;;;;;5095964;28;20375;-69
2023/07/18 07:26:07;;;;;;;1999.90;999.90;;;21.50;91.40;;;;;;5095919;28;20036;-69
2023/07/18 07:28:35;;;;;;;1999.90;999.90;;;21.50;90.90;;;;;;5095196;28;20036;-69
2023/07/18 07:31:03;;;;;;;1999.90;999.90;;;21.60;90.80;;;;;;5095524;28;20506;-69
2023/07/18 07:33:28;;;;;;;1999.90;999.90;;;21.70;90.10;;;;;;5094187;28;20047;-69
2023/07/18 07:35:54;;;;;;;1999.90;999.90;;;22.00;89.50;;;;;;5095652;28;20043;-69
2023/07/18 07:38:19;;;;;;;1999.90;999.90;;;22.10;90.40;;;;;;5095372;28;20037;-69
2023/07/18 07:40:45;;;;;;;1999.90;999.90;;;22.30;88.80;;;;;;5095512;28;20043;-69
2023/07/18 07:43:10;;;;;;;1999.90;999.90;;;22.50;89.70;;;;;;5095130;28;20039;-69
2023/07/18 07:45:36;;;;;;;1999.90;999.90;;;22.60;87.30;;;;;;5095546;28;20043;-69
2023/07/18 07:48:01;;;;;;;1999.90;999.90;;;22.90;87.10;;;;;;5095185;28;20086;-69
2023/07/18 07:50:27;;;;;;;1999.90;999.90;;;23.00;86.20;;;;;;5095505;28;20032;-69
2023/07/18 07:52:52;;;;;;;1999.90;999.90;;;23.10;85.30;;;;;;5095052;28;20082;-69
2023/07/18 07:55:18;;;;;;;1999.90;999.90;;;23.20;84.20;;;;;;5095322;28;20090;-69
2023/07/18 07:57:44;;;;;;;1999.90;999.90;;;23.50;83.50;;;;;;5095009;28;20032;-69
2023/07/18 08:00:10;;;;;;;1999.90;999.90;;;23.70;82.70;;;;;;5095314;28;20112;-70
2023/07/18 08:02:36;;;;;;;1999.90;999.90;;;23.80;81.10;;;;;;5095139;28;20028;-69
2023/07/18 08:05:01;;;;;;;1999.90;999.90;;;23.80;80.30;;;;;;5095082;28;20032;-69
2023/07/18 08:07:27;;;;;;;1999.90;999.90;;;23.90;81.90;;;;;;5094774;28;20036;-69
2023/07/18 08:09:52;;;;;;;1999.90;999.90;;;24.10;79.90;;;;;;5095090;28;20090;-69
2023/07/18 08:12:18;;;;;;;1999.90;999.90;;;24.30;78.60;;;;;;5094766;28;20024;-70
2023/07/18 08:14:44;;;;;;;1999.90;999.90;;;24.40;78.30;;;;;;5095023;28;20040;-69
2023/07/18 08:17:10;;;;;;;1999.90;999.90;;;24.70;76.10;;;;;;5094819;28;20486;-69
2023/07/18 08:19:35;;;;;;;1999.90;999.90;;;24.80;77.50;;;;;;5093281;28;20049;-69
2023/07/18 08:22:02;;;;;;;1999.90;999.90;;;24.50;78.50;;;;;;5094884;28;20505;-69
2023/07/18 08:24:28;;;;;;;1999.90;999.90;;;24.20;77.80;;;;;;5094972;28;20102;-69
2023/07/18 08:26:54;;;;;;;1999.90;999.90;;;24.30;78.60;;;;;;5094617;28;20446;-69
2023/07/18 08:29:19;;;;;;;1999.90;999.90;;;24.60;76.70;;;;;;5094703;28;20039;-69
2023/07/18 08:31:45;;;;;;;1999.90;999.90;;;24.90;77.10;;;;;;5093988;28;20039;-69
2023/07/18 08:34:11;;;;;;;1999.90;999.90;;;25.00;78.10;;;;;;5094692;28;20032;-69
2023/07/18 08:36:36;;;;;;;1999.90;999.90;;;24.90;74.60;;;;;;5094470;28;20088;-69
2023/07/18 08:39:02;;;;;;;1999.90;999.90;;;25.20;74.90;;;;;;5094552;28;20032;-69
2023/07/18 08:41:28;;;;;;;1999.90;999.90;;;25.40;74.20;;;;;;5094382;28;20028;-69
2023/07/18 08:43:55;;;;;;;1999.90;999.90;;;25.40;72.80;;;;;;5094756;28;20041;-69
2023/07/18 08:46:21;;;;;;;1999.90;999.90;;;25.40;71.30;;;;;;5093268;28;20037;-69
2023/07/18 08:48:48;;;;;;;1999.90;999.90;;;25.50;72.40;;;;;;5094172;28;20104;-70
2023/07/18 08:51:14;;;;;;;1999.90;999.90;;;25.40;72.90;;;;;;5130731;27;20032;-69
2023/07/18 08:53:40;;;;;;;1999.90;999.90;;;25.40;72.10;;;;;;5135066;27;20055;-73
2023/07/18 08:56:09;;;;;;;1999.90;999.90;;;25.20;82.40;;;;;;5135183;27;20452;-70
2023/07/18 08:58:39;;;;;;;1999.90;999.90;;;25.60;72.50;;;;;;5135268;27;20028;-69
2023/07/18 09:01:05;;;;;;;1999.90;999.90;;;25.90;71.60;;;;;;5135366;27;20810;-73
2023/07/18 09:03:31;;;;;;;1999.90;999.90;;;26.20;69.80;;;;;;5135443;27;20039;-71
2023/07/18 09:06:00;;;;;;;1999.90;999.90;;;26.00;70.70;;;;;;5135524;27;20032;-71
2023/07/18 09:08:26;;;;;;;1999.90;999.90;;;26.30;71.30;;;;;;5135192;27;20111;-71
2023/07/18 09:11:04;;;;;;;1999.90;999.90;;;26.50;73.00;;;;;;5135422;27;20038;-71
2023/07/18 09:13:38;;;;;;;1999.90;999.90;;;26.70;69.30;;;;;;5135316;27;20032;-71
2023/07/18 09:16:22;;;;;;;1999.90;999.90;;;27.00;68.20;;;;;;5135330;27;20039;-71
2023/07/18 09:18:49;;;;;;;1999.90;999.90;;;26.90;68.00;;;;;;5134813;27;20097;-71
2023/07/18 09:21:15;;;;;;;1999.90;999.90;;;26.90;67.50;;;;;;5134882;27;20106;-71
2023/07/18 09:23:42;;;;;;;1999.90;999.90;;;27.00;66.70;;;;;;5135395;27;20036;-71
2023/07/18 09:26:10;;;;;;;1999.90;999.90;;;26.80;69.10;;;;;;5134994;27;20036;-71
2023/07/18 09:28:36;;;;;;;1999.90;999.90;;;26.70;68.60;;;;;;5134945;27;20496;-71
2023/07/18 09:31:02;;;;;;;1999.90;999.90;;;26.80;68.40;;;;;;5134992;27;20059;-70
2023/07/18 09:33:28;;;;;;;1999.90;999.90;;;26.90;67.60;;;;;;5135258;27;20106;-71
2023/07/18 09:36:00;;;;;;;1999.90;999.90;;;27.00;68.50;;;;;;5134753;27;20040;-70
2023/07/18 09:38:26;;;;;;;1999.90;999.90;;;27.20;66.50;;;;;;5134484;27;20097;-70
2023/07/18 09:40:53;;;;;;;1999.90;999.90;;;27.20;65.60;;;;;;5134905;27;20447;-70
2023/07/18 09:43:21;;;;;;;1999.90;999.90;;;27.50;65.40;;;;;;5134759;27;20031;-71
2023/07/18 09:45:50;;;;;;;1999.90;999.90;;;27.50;66.00;;;;;;5136625;27;20552;-71
2023/07/18 09:48:17;;;;;;;1999.90;999.90;;;27.50;63.60;;;;;;5138163;27;20059;-70
2023/07/18 09:50:46;;;;;;;1999.90;999.90;;;27.50;66.20;;;;;;5138446;27;20055;-71
2023/07/18 09:53:13;;;;;;;1999.90;999.90;;;27.30;65.60;;;;;;5136582;27;20119;-71
2023/07/18 09:55:40;;;;;;;1999.90;999.90;;;27.50;66.90;;;;;;5138151;27;20126;-70
2023/07/18 09:58:09;;;;;;;1999.90;999.90;;;27.60;65.20;;;;;;5138147;27;20192;-71
2023/07/18 10:00:36;;;;;;;1999.90;999.90;;;28.00;66.40;;;;;;5137764;27;20104;-70
2023/07/18 10:03:03;;;;;;;1999.90;999.90;;;27.90;63.70;;;;;;5137987;27;20063;-71
2023/07/18 10:05:29;;;;;;;1999.90;999.90;;;27.70;65.30;;;;;;5138146;27;20040;-71
2023/07/18 10:07:55;;;;;;;1999.90;999.90;;;27.70;66.10;;;;;;5138053;27;20393;-71
2023/07/18 10:10:21;;;;;;;1999.90;999.90;;;27.40;65.30;;;;;;5138012;27;20039;-71
2023/07/18 10:12:55;;;;;;;1999.90;999.90;;;28.00;65.20;;;;;;5137782;27;20102;-71
2023/07/18 10:15:21;;;;;;;1999.90;999.90;;;28.30;64.90;;;;;;5137932;27;20047;-71
2023/07/18 10:17:47;;;;;;;1999.90;999.90;;;28.40;64.30;;;;;;5137957;27;20505;-71
2023/07/18 10:20:32;;;;;;;1999.90;999.90;;;28.80;63.10;;;;;;5137953;27;20071;-71
2023/07/18 10:22:59;;;;;;;1999.90;999.90;;;28.70;62.10;;;;;;5137873;27;20059;-71
2023/07/18 10:25:27;;;;;;;1999.90;999.90;;;28.70;64.70;;;;;;5136408;27;20035;-72
2023/07/18 10:27:52;;;;;;;1999.90;999.90;;;28.90;63.50;;;;;;5135812;27;20027;-73
2023/07/18 10:30:19;;;;;;;1999.90;999.90;;;29.10;61.80;;;;;;5137902;27;20419;-71
2023/07/18 10:32:58;;;;;;;1999.90;999.90;;;28.90;60.50;;;;;;5137748;27;20027;-76
2023/07/18 10:35:27;;;;;;;1999.90;999.90;;;28.60;68.60;;;;;;5136211;27;20517;-71
2023/07/18 10:37:55;;;;;;;1999.90;999.90;;;28.30;66.30;;;;;;5137001;27;20074;-72
2023/07/18 10:40:40;;;;;;;1999.90;999.90;;;28.40;61.30;;;;;;5137393;27;20028;-72
2023/07/18 10:43:09;;;;;;;1999.90;999.90;;;29.00;61.30;;;;;;5137313;27;20043;-76
2023/07/18 10:45:39;;;;;;;1999.90;999.90;;;29.00;61.70;;;;;;5137442;27;20032;-72
2023/07/18 10:48:20;;;;;;;1999.90;999.90;;;29.00;64.10;;;;;;5137682;27;20103;-72
2023/07/18 10:50:47;;;;;;;1999.90;999.90;;;29.10;64.50;;;;;;5137708;27;20536;-72
2023/07/18 10:53:14;;;;;;;1999.90;999.90;;;29.30;62.50;;;;;;5137348;27;20031;-72
2023/07/18 10:55:40;;;;;;;1999.90;999.90;;;29.20;62.20;;;;;;5127076;27;20047;-71
2023/07/18 10:58:13;;;;;;;1999.90;999.90;;;29.20;61.40;;;;;;5110029;27;20037;-72
2023/07/18 11:00:40;;;;;;;1999.90;999.90;;;29.80;62.30;;;;;;5096204;28;20032;-71
2023/07/18 11:03:06;;;;;;;1999.90;999.90;;;30.30;61.90;;;;;;5095658;28;20024;-71
2023/07/18 11:05:33;;;;;;;1999.90;999.90;;;30.20;59.20;;;;;;5096137;28;20033;-72
2023/07/18 11:07:59;;;;;;;1999.90;999.90;;;30.40;58.80;;;;;;5095893;28;20035;-72
2023/07/18 11:10:25;;;;;;;1999.90;999.90;;;29.90;59.10;;;;;;5096143;28;20048;-72
2023/07/18 11:12:52;;;;;;;1999.90;999.90;;;29.80;60.40;;;;;;5095727;28;20033;-72
2023/07/18 11:15:21;;;;;;;1999.90;999.90;;;29.60;59.40;;;;;;5104052;28;20043;-72
2023/07/18 11:17:47;;;;;;;1999.90;999.90;;;30.00;61.90;;;;;;5104309;28;20020;-72
2023/07/18 11:20:12;;;;;;;1999.90;999.90;;;30.00;61.40;;;;;;5105552;28;20043;-72
2023/07/18 11:22:39;;;;;;;1999.90;999.90;;;30.10;61.30;;;;;;5098237;28;20036;-71
2023/07/18 11:25:05;;;;;;;1999.90;999.90;;;29.50;59.40;;;;;;5099319;28;20074;-72
2023/07/18 11:27:31;;;;;;;1999.90;999.90;;;29.20;60.10;;;;;;5115879;27;20142;-72
2023/07/18 11:29:58;;;;;;;1999.90;999.90;;;28.90;60.30;;;;;;5116253;28;20043;-73
2023/07/18 11:32:39;;;;;;;1999.90;999.90;;;29.20;62.60;;;;;;5096527;27;20506;-74
2023/07/18 11:35:18;;;;;;;1999.90;999.90;;;29.40;60.30;;;;;;5098126;28;20044;-73
2023/07/18 11:37:46;;;;;;;1999.90;999.90;;;29.50;59.50;;;;;;5102866;27;20036;-72
2023/07/18 11:40:25;;;;;;;1999.90;999.90;;;29.70;59.60;;;;;;5095475;28;20046;-72
2023/07/18 11:42:56;;;;;;;1999.90;999.90;;;29.20;60.30;;;;;;5095201;28;20383;-71
2023/07/18 11:45:23;;;;;;;1999.90;999.90;;;28.90;61.70;;;;;;5095378;28;20119;-71
2023/07/18 11:47:51;;;;;;;1999.90;999.90;;;29.00;61.70;;;;;;5095276;28;20464;-72
2023/07/18 11:50:18;;;;;;;1999.90;999.90;;;29.10;62.70;;;;;;5095541;28;20127;-72
2023/07/18 11:52:49;;;;;;;1999.90;999.90;;;29.30;60.40;;;;;;5094110;28;20032;-72
2023/07/18 11:55:19;;;;;;;1999.90;999.90;;;29.30;60.70;;;;;;5094753;28;20051;-73
2023/07/18 11:57:45;;;;;;;1999.90;999.90;;;29.20;60.00;;;;;;5095116;28;20060;-73